Santiago Moreno

Olheiro-Chefe - Monterrey
6 Mar 2029
Terça-feira
Processo

Personalidade

Adaptabilidade (1) Ambição (11) Controvérsia (3) Lealdade (2) Pressão (9) Profissionalismo (6) Espírito Esportivo (1) Temperamento (17)

Perfil

Estilo de Treinamento Democrático
Licença Nacional A
Determinação 11
Gestão de Pessoas 14
Motivação 10
Disciplina 12
Satisfação no Trabalho
100%
Fadiga
0%
Função Olheiro-Chefe
Salário 112.6K p/s
Contrato 14.03.2029

Desempenho

Comportamento Bom
Eficácia do Treinamento
44%
Desenvolvimento do Jogador
75%
Prevenção de Lesões
65%
Implementação Tática
50%

Eventos Recentes

Negociação de contrato iniciada 7d atrás
Negociação de contrato iniciada 7d atrás
Negociação de contrato iniciada 7d atrás
Negociação de contrato iniciada 7d atrás
Negociação de contrato iniciada 7d atrás
Negociação de contrato iniciada 7d atrás
Negociação de contrato iniciada 14d atrás
Negociação de contrato iniciada 14d atrás

Monitorando agora

199
Jogador Clube Status Habilidade Confiança Observado Última observação Último voto
Imanol Machuca Independiente Ativo 135 / 124 40% 3 31.01.2029 -
Ismaël Gharbi Pacos de Ferreira Ativo 148 / 138 40% 3 31.01.2029 -
Juan Bisanz Huracán Ativo 140 / 135 40% 2 30.01.2029 -
Álvaro Barreal Santos Ativo 134 / 144 40% 1 30.01.2029 -
Hernán López Muñoz San Jose Earthquakes Ativo 141 / 127 40% 1 28.01.2029 -
Dani Ceballos Olympique de Marseille Ativo 150 / 158 40% 1 28.01.2029 -
Tiago Palacios Estudiantes Ativo 127 / 126 40% 4 25.01.2029 -
Haissem Hassan Corinthians Ativo 132 / 130 40% 1 25.01.2029 -
Jorge Salinas Racing Santander Ativo 125 / 139 40% 5 22.01.2029 -
Matías Magdaleno Estudiantes Ativo 112 / 123 40% 2 22.01.2029 -
Griffin Yow New England Revolution Ativo 123 / 124 40% 1 18.01.2029 -
Andrés Martín Racing Santander Ativo 142 / 151 40% 2 16.01.2029 -
Carlos Soler Almería Ativo 159 / 138 40% 1 16.01.2029 -
Alan Lescano São Paulo Ativo 131 / 127 40% 1 14.01.2029 -
Buba Sangaré Elche Ativo 127 / 133 40% 4 12.01.2029 -
Tylel Tati Valenciennes Ativo 153 / 128 40% 1 12.01.2029 -
Jon Morcillo Almería Ativo 138 / 133 40% 1 11.01.2029 -
Martín Jiménez Universidad de Concepcion Ativo 95 / 116 40% 5 06.01.2029 -
Harbor Miller LA Galaxy Ativo 102 / 117 40% 1 06.01.2029 -
Oussama Idrissi Fluminense Ativo 131 / 130 40% 1 06.01.2029 -
Hian Rincón Once Caldas Ativo 87 / 92 40% 1 04.01.2029 -
Lucas Jetten KV Oostende Ativo 126 / 139 40% 1 04.01.2029 -
Jack Shorrock Port Vale Ativo 91 / 116 40% 8 03.01.2029 -
Jorthy Mokio Ajax Ativo 143 / 141 40% 4 03.01.2029 -
Mateo Sabalza Najran Ativo 101 / 109 40% 1 02.01.2029 -
Kaiden Moore ES Mostaganem Ativo 103 / 113 40% 1 31.08.2028 -
Alejandro Almaraz Talleres Ativo 107 / 115 40% 2 22.08.2028 -
Agustín Medina River Plate Ativo 127 / 118 40% 1 22.08.2028 -
Jesús Peñaloza Deportes Quindio Ativo 95 / 107 40% 2 20.08.2028 -
Emiliano Bértoli Patronato Ativo 100 / 99 40% 1 20.08.2028 -
Luis Otávio Sporting Kansas City Ativo 119 / 127 40% 1 18.08.2028 -
Diego Cheuquepal Racing Ativo 104 / 98 40% 2 17.08.2028 -
Nicolás Barros Schelotto Gimnasia La Plata Ativo 120 / 134 40% 5 16.08.2028 -
Kevin Angulo Aguilas Doradas Ativo 102 / 118 40% 3 16.08.2028 -
Aarón Ochoa Málaga Ativo 110 / 119 40% 8 13.08.2028 -
Lisandro Piñero Banfield Ativo 117 / 127 40% 2 13.08.2028 -
Konstantinos Karetsas Borussia Dortmund Ativo 139 / 146 40% 1 11.08.2028 -
Giovanni Cantizano Rosario Central Ativo 116 / 123 40% 1 10.08.2028 -
Simón Bodnar River Plate Ativo 105 / 131 40% 2 08.08.2028 -
Kylan Midwood Shrewsbury Town Ativo 110 / 106 40% 2 04.08.2028 -
André Miranda Porto Ativo 110 / 113 40% 2 03.08.2028 -
Igor Tyjon Blackburn Rovers Ativo 136 / 125 40% 4 03.08.2028 -
Konta Ismaily Ativo 121 / 114 40% 1 03.08.2028 -
Daniel Banjaqui Benfica Ativo 146 / 138 40% 3 02.08.2028 -
Peter Amidu Acquah Asante Kotoko Ativo 101 / 99 40% 2 29.07.2028 -
Jan Bürger Burton Albion Ativo 110 / 120 40% 8 28.07.2028 -
Jake Evans Huddersfield Town Ativo 116 / 115 40% 2 27.07.2028 -
Ronnie Harvey Colchester United Ativo 89 / 102 40% 1 27.07.2028 -
Dro RC Lens Ativo 147 / 154 40% 1 25.07.2028 -
Ryan Mmaee Atlas Ativo 130 / 127 55% 1 24.07.2028 -
Alphadjo Cissé Bologna Ativo 143 / 124 40% 3 22.07.2028 -
Filipe Sousa Porto Ativo 106 / 97 40% 1 18.07.2028 -
Louie Copley Accrington Stanley Ativo 111 / 104 40% 1 16.07.2028 -
Martim Cunha Porto Ativo 105 / 113 40% 2 15.07.2028 -
Callum Tripp Milton Keynes Dons Ativo 87 / 101 40% 1 15.07.2028 -
Trey Ogunsuyi Shrewsbury Town Ativo 95 / 93 40% 1 12.07.2028 -
Federico Coletta Benfica Ativo 114 / 126 40% 2 07.07.2028 -
Romeo Akachukwu Northampton Town Ativo 119 / 98 40% 2 06.07.2028 -
Aidan West Gillingham Ativo 112 / 97 40% 1 05.07.2028 -
Zahir Ibarra Eibar Ativo 120 / 126 40% 3 04.07.2028 -
Cheveyo Tsawa Club Brugge Ativo 145 / 128 40% 1 04.07.2028 -
Miguel Figueiredo Benfica Ativo 110 / 114 40% 1 28.06.2028 -
Juan Cruz de los Santos Angers SCO Ativo 149 / 123 40% 2 26.06.2028 -
Estanis Pedrola Oviedo Ativo 135 / 141 40% 1 26.06.2028 -
Edison Gruezo Queretaro Ativo 103 / 113 40% 1 25.06.2028 -
Malik Mothersille Stockport County Ativo 111 / 112 40% 2 23.06.2028 -
Tyreece Campbell Charlton Athletic Ativo 137 / 138 40% 2 23.06.2028 -
Nahuel Leivas Montevideo City Torque Ativo 106 / 103 40% 1 21.06.2028 -
Alejo Sarco Oviedo Ativo 113 / 140 40% 1 12.06.2028 -
Agustín Nogueira River Plate Ativo 105 / 102 40% 1 09.06.2028 -
Diego Mascardi Spezia Ativo 133 / 147 40% 1 08.06.2028 -
Pape Diong Westerlo Ativo 116 / 113 40% 1 03.06.2028 -
Yago Santiago Elche Ativo 124 / 140 40% 1 01.06.2028 -
Nilson Angulo Reading Ativo 128 / 141 40% 1 01.06.2028 -
Clemente Montes Standard Liege Ativo 140 / 130 40% 2 31.01.2028 -
Manuel Duarte Barracas Central Ativo 129 / 115 40% 1 30.01.2028 -
Santiago Toloza O'Higgins Ativo 118 / 135 40% 4 27.01.2028 -
Leonardo Campana New England Revolution Ativo 122 / 137 40% 1 27.01.2028 -
Ignacio Schor O'Higgins Ativo 121 / 120 40% 3 26.01.2028 -
Ignacio Aliseda Cerro Porteno Ativo 117 / 120 40% 4 26.01.2028 -
Thiago Parga Huracán Ativo 104 / 117 40% 1 26.01.2028 -
Enrique Maza Atlético Tucumán Ativo 107 / 115 40% 1 26.01.2028 -
Kevin Zenón Boca Juniors Ativo 130 / 123 40% 1 22.01.2028 -
Ronaldo Pájaro Deportivo Cali Ativo 117 / 119 40% 1 20.01.2028 -
Mateo Garavito Deportivo Pasto Ativo 134 / 130 40% 1 19.01.2028 -
Eric Ramires Bragantino Ativo 131 / 133 40% 2 18.01.2028 -
Matías Fernández Independiente Rivadavia Ativo 125 / 115 40% 1 17.01.2028 -
Alexander Díaz Cerro Porteno Ativo 112 / 115 40% 3 16.01.2028 -
Mateo Zuleta Once Caldas Ativo 112 / 117 40% 1 16.01.2028 -
Franco Zapiola Platense Ativo 127 / 123 40% 1 15.01.2028 -
Mateo Castillo Real Cartagena Ativo 129 / 127 40% 2 14.01.2028 -
Tetê Grêmio Ativo 130 / 132 40% 1 13.01.2028 -
Henry Mosquera Bragantino Ativo 143 / 127 40% 1 12.01.2028 -
Agustín Alaniz Juventud Ativo 106 / 125 40% 1 11.01.2028 -
Tobías Cervera FC Tokyo Ativo 106 / 124 40% 1 05.01.2028 -
Yassir Zabiri Stade Rennais Ativo 147 / 134 40% 1 04.01.2028 -
Jesus Ferreira Seattle Sounders Ativo 144 / 124 40% 2 02.01.2028 -
Franco Pérez Boston River Ativo 117 / 100 40% 1 02.01.2028 -
Junior Paredes Trujillanos Ativo 113 / 107 40% 1 01.01.2028 -
Milson Al Jazira Ativo 114 / 123 40% 1 31.08.2027 -
Isaac Boehmer Vancouver Whitecaps Ativo 121 / 117 40% 1 28.08.2027 -
Facundo Torres Austin FC Ativo 141 / 133 40% 2 26.08.2027 -
Sebastián Navarro Fortaleza CEIF Ativo 113 / 110 40% 3 24.08.2027 -
Johan Martínez Deportivo Cali Ativo 112 / 112 40% 1 23.08.2027 -
Antonio Galeano Remo Stars Ativo 140 / 122 40% 1 21.08.2027 -
Cristian Barrios Junior Ativo 132 / 130 40% 3 20.08.2027 -
Gabriel Sinisterra Cortulua Ativo 124 / 112 40% 1 20.08.2027 -
Cristian Shpendi Cesena Ativo 142 / 147 40% 2 19.08.2027 -
Pablo Maffeo Olympiacos Ativo 129 / 130 40% 2 16.08.2027 -
Dany Mota Monza Ativo 145 / 147 40% 3 15.08.2027 -
Gaetano Castrovilli Cesena Ativo 136 / 121 40% 2 14.08.2027 -
Sidny Lopes Cabral Trabzonspor Ativo 123 / 153 40% 2 11.08.2027 -
Nicolás Sumavil Platense Ativo 125 / 125 40% 3 10.08.2027 -
Diego Enríquez Sporting Cristal Ativo 143 / 129 40% 1 10.08.2027 -
Alex Robertson Cardiff City Ativo 138 / 114 40% 2 06.08.2027 -
Nathan Broadhead Wrexham Ativo 132 / 123 40% 1 06.08.2027 -
Callum O'Hare Sheffield United Ativo 120 / 141 40% 1 05.08.2027 -
Bobby Clark Derby County Ativo 144 / 128 40% 1 04.08.2027 -
Isaiah Jones Luton Town Ativo 136 / 115 40% 1 04.08.2027 -
Jack Diamond Stockport County Ativo 143 / 127 40% 2 03.08.2027 -
Femi Azeez Millwall Ativo 109 / 131 40% 1 01.08.2027 -
Mathias Jørgensen Blackburn Rovers Ativo 109 / 126 40% 1 01.08.2027 -
Lorent Tolaj Plymouth Argyle Ativo 108 / 122 40% 1 31.07.2027 -
Rumarn Burrell Queens Park Rangers Ativo 145 / 124 40% 1 29.07.2027 -
Tyler Goodrham Oxford United Ativo 128 / 113 40% 2 27.07.2027 -
Kayne Ramsay Charlton Athletic Ativo 115 / 114 40% 1 25.07.2027 -
Stephen Eustáquio Swansea City Ativo 140 / 130 40% 1 24.07.2027 -
Sonny Carey Charlton Athletic Ativo 127 / 120 40% 1 23.07.2027 -
Callum Lang Preston Ativo 120 / 123 40% 1 22.07.2027 -
Alejandro Zendejas Club America Ativo 153 / 140 40% 1 20.07.2027 -
Jovon Makama Norwich City Ativo 128 / 130 40% 1 20.07.2027 -
Max Conway Bolton Wanderers Ativo 120 / 128 40% 2 18.07.2027 -
Nicolás Castro Toluca Ativo 136 / 129 40% 1 17.07.2027 -
Juan Pablo Domínguez Leon Ativo 142 / 130 40% 1 16.07.2027 -
Filippo Distefano Empoli Ativo 112 / 130 40% 1 15.07.2027 -
Diego Lainez Tigres Ativo 130 / 121 40% 4 13.07.2027 -
Salvatore Villa Padideh Ativo 117 / 124 40% 1 13.07.2027 -
John Yeboah Venezia Ativo 132 / 112 40% 1 12.07.2027 -
Evidence Makgopa Orlando Pirates Ativo 134 / 126 40% 3 10.07.2027 -
Rob Street Lincoln City Ativo 107 / 124 40% 1 10.07.2027 -
Óscar Al-Diriyah Ativo 122 / 132 40% 2 07.07.2027 -
Kelly Saravanan Salford City Ativo 107 / 112 40% 1 06.07.2027 -
Harvey Blair Portsmouth Ativo 101 / 133 40% 1 05.07.2027 -
Ismael Díaz Leon Ativo 142 / 139 51% 4 02.07.2027 -
Ross McCrorie Bristol City Ativo 111 / 116 40% 1 02.07.2027 -
Hector Kyprianou Watford Ativo 142 / 138 40% 2 01.07.2027 -
Lee Bonis Chesterfield Ativo 98 / 95 40% 1 01.07.2027 -
Stiven Shpendi Empoli Ativo 114 / 122 40% 2 29.06.2027 -
Jorge Herrera Veracruz Ativo 146 / 119 40% 2 29.06.2027 -
Sam Bell Bristol City Ativo 113 / 139 40% 1 29.06.2027 -
Gaizka Larrazabal Bolton Wanderers Ativo 114 / 120 40% 2 28.06.2027 -
Paulinho Toluca Ativo 145 / 137 51% 1 28.06.2027 -
Brayan Alcócer Tranmere Rovers Ativo 124 / 90 40% 1 24.06.2027 -
Tiago Silva Oliveirense Ativo 117 / 127 40% 1 24.06.2027 -
Agustín Curruhinca Fatih Karagumruk Ativo 94 / 121 40% 1 23.06.2027 -
Job Ochieng Real Sociedad Ativo 90 / 108 40% 1 23.06.2027 -
Kanya Fujimoto Birmingham Ativo 102 / 114 40% 1 20.06.2027 -
Mirko Antonucci Cittadella Ativo 103 / 115 40% 2 12.06.2027 -
Ezequiel Bullaude Santos Laguna Ativo 124 / 122 40% 1 09.06.2027 -
Carlos Rodríguez Cruz Azul Ativo 136 / 148 40% 1 05.06.2027 -
Víctor Dávila Club America Ativo 131 / 128 40% 1 04.06.2027 -
Murphy Cooper Plymouth Argyle Ativo 120 / 125 40% 3 30.01.2027 -
Santiago Fernández Talleres Ativo 119 / 115 40% 1 29.01.2027 -
Nikita Kokarev Krylya Sovetov Ativo 135 / 102 40% 1 27.01.2027 -
Bento Al-Nassr Ativo 143 / 138 40% 2 26.01.2027 -
Andreas Jungdal Westerlo Ativo 131 / 124 40% 1 25.01.2027 -
Maeson King Portsmouth Ativo 117 / 120 40% 1 24.01.2027 -
Yassine Khalifi Charleroi Ativo 97 / 111 40% 1 22.01.2027 -
Milan Roganović Partizan Ativo 98 / 110 40% 1 22.01.2027 -
Samu Maccabi Netanya Ativo 129 / 111 40% 2 20.01.2027 -
Brent Gabriel Zulte Waregem Ativo 137 / 104 40% 1 19.01.2027 -
Strahinja Manojlović Radnicki Nis Ativo 122 / 105 40% 2 18.01.2027 -
Matthieu Epolo Standard Liege Ativo 122 / 124 40% 2 17.01.2027 -
Leo Kokubo Sint-Truiden Ativo 108 / 112 40% 1 16.01.2027 -
Milad Hosseini Padideh Ativo 109 / 115 40% 1 16.01.2027 -
Nahuel Manganelli Orebro Ativo 97 / 132 40% 1 14.01.2027 -
John Mercado Sparta Prague Ativo 129 / 120 40% 1 14.01.2027 -
Jonathan Pérez Guadalajara Ativo 130 / 113 40% 1 13.01.2027 -
Jan Bačkovský Dukla Prague Ativo 92 / 116 40% 1 11.01.2027 -
Hans Courtois Mouscron Ativo 127 / 115 40% 1 11.01.2027 -
Lukas Jensen Millwall Ativo 115 / 128 40% 1 11.01.2027 -
Dmytro Riznyk Shakhtar Ativo 159 / 141 40% 1 09.01.2027 -
Lucas Agazzi Athletic Bilbao Ativo 104 / 116 40% 1 09.01.2027 -
Zach Hemming Chesterfield Ativo 122 / 115 40% 1 04.01.2027 -
Tai Baribo DC United Ativo 113 / 121 40% 1 30.08.2026 -
Bitello Dinamo Moscow Ativo 120 / 141 40% 2 28.08.2026 -
Christos Zafeiris PAOK Ativo 129 / 132 40% 3 27.08.2026 -
Dedryck De Ketelaere KV Oostende Ativo 122 / 149 40% 4 26.08.2026 -
Jens Petter Hauge Bodo/Glimt Ativo 139 / 142 40% 1 18.08.2026 -
Richard Ledezma Guadalajara Ativo 136 / 123 40% 2 16.08.2026 -
Petar Stanić Galatasaray Ativo 149 / 138 40% 1 14.08.2026 -
Jeriel De Santis Caracas Ativo 111 / 97 40% 1 14.08.2026 -
Alexander Aravena Portland Timbers Ativo 118 / 115 40% 1 14.08.2026 -
Gonzalo Plata Dinamo Moscow Ativo 118 / 122 40% 1 12.08.2026 -
Gedson Fernandes Spartak Moscow Ativo 116 / 128 40% 1 10.08.2026 -
Esequiel Barco Spartak Moscow Ativo 126 / 154 40% 1 09.08.2026 -
Kings Kangwa Panathinaikos Ativo 120 / 141 40% 1 06.08.2026 -
Pol Lozano Espanyol Ativo 125 / 121 40% 1 02.08.2026 -
Paul Nebel Mainz 05 Ativo 158 / 125 40% 1 02.08.2026 -